createdAt,value
2018-04-16T00:00:37.930Z,99.90
2018-04-16T00:03:09.053Z,99.90
2018-04-16T00:05:36.525Z,99.90
2018-04-16T00:08:03.990Z,99.90
2018-04-16T00:10:31.454Z,99.90
2018-04-16T00:12:59.694Z,99.90
2018-04-16T00:15:27.148Z,99.90
2018-04-16T00:17:54.627Z,99.90
2018-04-16T00:20:22.089Z,99.90
2018-04-16T00:22:49.572Z,99.90
2018-04-16T00:25:17.033Z,99.90
2018-04-16T00:27:44.509Z,99.90
2018-04-16T00:30:13.877Z,99.90
2018-04-16T00:32:48.862Z,99.90
2018-04-16T00:35:22.046Z,99.90
2018-04-16T00:37:55.249Z,99.90
2018-04-16T00:40:28.326Z,99.90
2018-04-16T00:43:02.178Z,99.90
2018-04-16T00:45:35.373Z,99.90
2018-04-16T00:48:10.360Z,99.90
2018-04-16T00:50:43.545Z,99.90
2018-04-16T00:53:18.514Z,99.90
2018-04-16T00:55:51.774Z,99.90
2018-04-16T00:58:25.830Z,99.90
2018-04-16T01:01:00.053Z,99.90
2018-04-16T01:03:41.003Z,99.90
2018-04-16T01:06:14.013Z,99.90
2018-04-16T01:08:48.088Z,99.90
2018-04-16T01:11:21.147Z,99.90
2018-04-16T01:13:55.103Z,99.90
2018-04-16T01:16:28.265Z,99.90
2018-04-16T01:19:02.310Z,99.90
2018-04-16T01:21:48.713Z,99.90
2018-04-16T01:24:21.917Z,99.90
2018-04-16T01:26:55.008Z,99.90
2018-04-16T01:29:28.206Z,99.90
2018-04-16T01:32:01.406Z,99.90
2018-04-16T01:34:35.492Z,99.90
2018-04-16T01:37:08.577Z,99.90
2018-04-16T01:39:41.862Z,99.90
2018-04-16T01:42:15.007Z,99.90
2018-04-16T01:44:48.258Z,99.90
2018-04-16T01:47:25.205Z,99.90
2018-04-16T01:50:02.888Z,99.90
2018-04-16T01:52:37.059Z,99.90
2018-04-16T01:55:11.066Z,99.90
2018-04-16T01:57:44.282Z,99.90
2018-04-16T02:00:17.481Z,99.90
2018-04-16T02:02:50.682Z,99.90
2018-04-16T02:05:24.815Z,99.90
2018-04-16T02:07:58.017Z,99.90
2018-04-16T02:10:31.166Z,99.90
2018-04-16T02:13:04.375Z,99.90
2018-04-16T02:15:37.527Z,99.90
2018-04-16T02:18:11.711Z,99.90
2018-04-16T02:20:44.859Z,99.90
2018-04-16T02:23:18.121Z,99.90
2018-04-16T02:25:51.271Z,99.90
2018-04-16T02:28:24.482Z,99.90
2018-04-16T02:30:57.740Z,99.90
2018-04-16T02:33:31.042Z,99.90
2018-04-16T02:36:05.006Z,99.90
2018-04-16T02:38:41.139Z,99.90
2018-04-16T02:41:14.352Z,99.90
2018-04-16T02:43:51.576Z,99.90
2018-04-16T02:46:24.790Z,99.90
2018-04-16T02:48:57.970Z,99.90
2018-04-16T02:51:31.236Z,99.90
2018-04-16T02:54:04.490Z,99.90
2018-04-16T02:56:38.560Z,99.90
2018-04-16T02:59:12.550Z,99.90
2018-04-16T03:01:46.674Z,99.90
2018-04-16T03:04:19.878Z,99.90
2018-04-16T03:06:53.049Z,99.90
2018-04-16T03:09:26.190Z,99.90
2018-04-16T03:11:59.390Z,99.90
2018-04-16T03:14:32.654Z,99.90
2018-04-16T03:17:05.828Z,99.90
2018-04-16T03:19:39.815Z,99.90
2018-04-16T03:22:12.890Z,99.90
2018-04-16T03:24:45.917Z,99.90
2018-04-16T03:27:19.047Z,99.90
2018-04-16T03:29:52.254Z,99.90
2018-04-16T03:32:26.130Z,99.90
2018-04-16T03:34:59.305Z,99.90
2018-04-16T03:37:32.486Z,99.90
2018-04-16T03:40:06.446Z,99.90
2018-04-16T03:42:39.645Z,99.90
2018-04-16T03:45:12.851Z,99.90
2018-04-16T03:47:46.060Z,99.90
2018-04-16T03:50:19.300Z,99.90
2018-04-16T03:52:52.461Z,99.90
2018-04-16T03:55:35.701Z,99.90
2018-04-16T03:58:03.172Z,99.90
2018-04-16T04:00:30.626Z,99.90
2018-04-16T04:02:58.098Z,99.90
2018-04-16T04:05:25.562Z,99.90
2018-04-16T04:07:53.030Z,99.90
2018-04-16T04:10:21.253Z,99.90
2018-04-16T04:12:48.730Z,99.90
2018-04-16T04:15:16.198Z,99.90
2018-04-16T04:17:43.670Z,99.90
2018-04-16T04:20:12.109Z,99.90
2018-04-16T04:22:52.190Z,99.90
2018-04-16T04:25:31.676Z,99.90
2018-04-16T04:28:11.047Z,99.90
2018-04-16T04:30:39.477Z,99.90
2018-04-16T04:33:06.952Z,99.90
2018-04-16T04:35:34.418Z,99.90
2018-04-16T04:38:01.894Z,99.90
2018-04-16T04:40:29.357Z,99.90
2018-04-16T04:42:57.590Z,99.90
2018-04-16T04:45:25.062Z,99.90
2018-04-16T04:47:52.535Z,99.90
2018-04-16T04:50:20.002Z,99.90
2018-04-16T04:52:47.477Z,99.90
2018-04-16T04:55:14.937Z,99.90
2018-04-16T04:57:42.414Z,99.90
2018-04-16T05:00:09.875Z,99.90
2018-04-16T05:02:37.346Z,99.90
2018-04-16T05:05:04.806Z,99.90
2018-04-16T05:07:32.281Z,99.90
2018-04-16T05:09:59.742Z,99.90
2018-04-16T05:12:27.217Z,99.90
2018-04-16T05:14:54.673Z,99.90
2018-04-16T05:17:22.153Z,99.90
2018-04-16T05:19:50.376Z,99.90
2018-04-16T05:22:17.883Z,99.90
2018-04-16T05:24:45.317Z,99.90
2018-04-16T05:27:12.786Z,99.90
2018-04-16T05:29:40.265Z,99.90
2018-04-16T05:32:07.721Z,99.90
2018-04-16T05:34:35.203Z,99.90
2018-04-16T05:37:02.653Z,99.90
2018-04-16T05:39:30.126Z,99.90
2018-04-16T05:41:57.598Z,99.90
2018-04-16T05:44:25.073Z,99.90
2018-04-16T05:46:52.525Z,99.90
2018-04-16T05:49:20.093Z,99.90
2018-04-16T05:51:47.526Z,99.90
2018-04-16T05:54:15.001Z,99.90
2018-04-16T05:56:42.461Z,99.90
2018-04-16T05:59:09.934Z,99.90
2018-04-16T06:01:37.405Z,99.90
2018-04-16T06:04:04.876Z,99.90
2018-04-16T06:06:32.371Z,99.90
2018-04-16T06:08:59.827Z,99.90
2018-04-16T06:11:27.292Z,99.90
2018-04-16T06:13:54.781Z,99.90
2018-04-16T06:16:22.249Z,99.90
2018-04-16T06:18:49.723Z,99.90
2018-04-16T06:21:17.185Z,99.90
2018-04-16T06:23:44.653Z,99.90
2018-04-16T06:26:12.121Z,99.90
2018-04-16T06:28:39.588Z,99.90
2018-04-16T06:31:07.050Z,99.90
2018-04-16T06:33:34.526Z,99.90
2018-04-16T06:36:02.754Z,99.90
2018-04-16T06:38:30.235Z,99.90
2018-04-16T06:40:57.754Z,99.90
2018-04-16T06:43:25.217Z,99.90
2018-04-16T06:45:53.446Z,99.90
2018-04-16T06:48:20.933Z,99.90
2018-04-16T06:50:48.394Z,99.90
2018-04-16T06:53:15.870Z,99.90
2018-04-16T06:55:43.333Z,99.90
2018-04-16T06:58:10.800Z,99.90
2018-04-16T07:00:38.269Z,99.90
2018-04-16T07:03:05.752Z,99.90
2018-04-16T07:05:33.335Z,99.90
2018-04-16T07:08:00.812Z,99.90
2018-04-16T07:10:28.285Z,99.90
2018-04-16T07:12:55.754Z,99.90
2018-04-16T07:15:23.226Z,99.90
2018-04-16T07:17:50.687Z,99.90
2018-04-16T07:20:18.158Z,99.90
2018-04-16T07:22:45.619Z,99.90
2018-04-16T07:25:13.097Z,99.90
2018-04-16T07:27:40.557Z,99.90
2018-04-16T07:30:08.038Z,99.90
2018-04-16T07:32:35.502Z,99.90
2018-04-16T07:35:02.978Z,99.90
2018-04-16T07:37:30.442Z,99.90
2018-04-16T07:39:57.913Z,99.90
2018-04-16T07:42:25.372Z,99.90
2018-04-16T07:44:52.836Z,99.90
2018-04-16T07:47:20.288Z,99.90
2018-04-16T07:49:47.761Z,99.90
2018-04-16T07:52:15.223Z,99.90
2018-04-16T07:54:42.698Z,98.20
2018-04-16T07:57:10.158Z,92.90
2018-04-16T07:59:37.629Z,89.20
2018-04-16T08:02:05.093Z,90.30
2018-04-16T08:04:32.561Z,91.70
2018-04-16T08:07:00.019Z,93.90
2018-04-16T08:09:27.491Z,96.30
2018-04-16T08:11:54.950Z,97.80
2018-04-16T08:14:23.186Z,99.90
2018-04-16T08:16:50.644Z,99.90
2018-04-16T08:19:18.165Z,99.90
2018-04-16T08:21:45.590Z,99.90
2018-04-16T08:24:13.065Z,99.90
2018-04-16T08:26:40.534Z,99.90
2018-04-16T08:29:08.008Z,99.90
2018-04-16T08:31:35.482Z,99.90
2018-04-16T08:34:02.956Z,99.90
2018-04-16T08:36:30.412Z,99.90
2018-04-16T08:38:57.896Z,99.90
2018-04-16T08:41:25.366Z,99.90
2018-04-16T08:43:52.821Z,99.90
2018-04-16T08:46:20.298Z,99.90
2018-04-16T08:48:47.758Z,99.90
2018-04-16T08:51:15.224Z,99.90
2018-04-16T08:53:42.700Z,99.80
2018-04-16T08:56:10.188Z,99.60
2018-04-16T08:58:37.650Z,99.90
2018-04-16T09:01:05.127Z,99.90
2018-04-16T09:03:32.590Z,99.90
2018-04-16T09:06:00.063Z,99.90
2018-04-16T09:08:27.524Z,97.80
2018-04-16T09:10:54.993Z,96.40
2018-04-16T09:13:22.461Z,93.30
2018-04-16T09:15:49.935Z,92.60
2018-04-16T09:18:17.398Z,92.00
2018-04-16T09:20:44.864Z,90.40
2018-04-16T09:23:12.331Z,71.60
2018-04-16T09:25:39.806Z,57.30
2018-04-16T09:28:07.263Z,24.40
2018-04-16T09:30:34.735Z,17.20
2018-04-16T09:33:02.220Z,12.50
2018-04-16T09:35:29.670Z,11.70
2018-04-16T09:37:57.162Z,10.30
2018-04-16T09:40:24.607Z,11.90
2018-04-16T09:42:52.063Z,6.10
2018-04-16T09:45:19.525Z,3.00
2018-04-16T09:47:46.977Z,3.90
2018-04-16T09:50:15.210Z,3.90
2018-04-16T09:52:42.669Z,4.10
2018-04-16T09:55:10.134Z,2.40
2018-04-16T09:57:37.593Z,4.00
2018-04-16T10:00:05.073Z,3.50
2018-04-16T10:02:32.535Z,1.00
2018-04-16T10:05:00.013Z,1.00
2018-04-16T10:07:27.466Z,1.00
2018-04-16T10:09:54.947Z,1.30
2018-04-16T10:12:22.405Z,1.00
2018-04-16T10:14:50.768Z,1.70
2018-04-16T10:17:18.230Z,1.80
2018-04-16T10:19:45.687Z,1.00
2018-04-16T10:22:13.154Z,1.00
2018-04-16T10:24:40.610Z,1.00
2018-04-16T10:27:08.070Z,1.00
2018-04-16T10:29:35.530Z,1.00
2018-04-16T10:32:03.002Z,1.00
2018-04-16T10:34:30.466Z,1.00
2018-04-16T10:36:57.938Z,1.00
2018-04-16T10:39:25.417Z,1.00
2018-04-16T10:41:52.896Z,1.00
2018-04-16T10:44:20.350Z,1.00
2018-04-16T10:46:47.819Z,1.00
2018-04-16T10:49:15.265Z,1.00
2018-04-16T10:51:42.739Z,1.00
2018-04-16T10:54:10.198Z,1.00
2018-04-16T10:56:38.429Z,1.00
2018-04-16T10:59:05.894Z,1.00
2018-04-16T11:01:33.366Z,1.00
2018-04-16T11:04:00.825Z,1.00
2018-04-16T11:06:28.289Z,1.00
2018-04-16T11:08:55.759Z,1.00
2018-04-16T11:11:23.226Z,1.00
2018-04-16T11:13:50.688Z,1.00
2018-04-16T11:16:18.167Z,1.00
2018-04-16T11:18:45.632Z,1.00
2018-04-16T11:21:13.093Z,1.00
2018-04-16T11:23:40.561Z,1.00
2018-04-16T11:26:08.033Z,1.00
2018-04-16T11:28:36.245Z,1.00
2018-04-16T11:31:03.728Z,1.00
2018-04-16T11:33:31.186Z,1.00
2018-04-16T11:35:59.421Z,1.00
2018-04-16T11:38:26.879Z,1.00
2018-04-16T11:40:54.341Z,1.00
2018-04-16T11:43:21.805Z,1.00
2018-04-16T11:45:49.268Z,1.00
2018-04-16T11:48:16.728Z,1.00
2018-04-16T11:50:44.192Z,1.00
2018-04-16T11:53:11.655Z,1.00
2018-04-16T11:55:39.120Z,1.00
2018-04-16T11:58:06.585Z,1.00
2018-04-16T12:00:34.057Z,1.00
2018-04-16T12:03:01.514Z,1.00
2018-04-16T12:05:32.254Z,1.00
2018-04-16T12:08:00.474Z,1.00
2018-04-16T12:10:27.929Z,1.00
2018-04-16T12:12:55.406Z,1.00
2018-04-16T12:15:22.873Z,1.00
2018-04-16T12:17:50.348Z,1.00
2018-04-16T12:20:17.811Z,1.00
2018-04-16T12:22:45.289Z,1.00
2018-04-16T12:25:13.513Z,1.00
2018-04-16T12:27:40.991Z,1.00
2018-04-16T12:30:08.454Z,1.00
2018-04-16T12:32:35.913Z,1.00
2018-04-16T12:35:03.401Z,1.00
2018-04-16T12:37:30.862Z,1.00
2018-04-16T12:39:58.318Z,1.00
2018-04-16T12:42:25.787Z,1.00
2018-04-16T12:44:53.244Z,1.00
2018-04-16T12:47:20.734Z,1.00
2018-04-16T12:49:48.196Z,1.00
2018-04-16T12:52:15.671Z,1.00
2018-04-16T12:54:43.141Z,1.00
2018-04-16T12:57:10.619Z,1.00
2018-04-16T12:59:38.084Z,1.00
2018-04-16T13:02:05.542Z,1.00
2018-04-16T13:04:33.002Z,1.00
2018-04-16T13:07:00.479Z,1.00
2018-04-16T13:09:27.935Z,1.00
2018-04-16T13:12:01.802Z,1.00
2018-04-16T13:14:29.266Z,1.00
2018-04-16T13:16:56.735Z,1.00
2018-04-16T13:19:24.201Z,1.00
2018-04-16T13:21:51.679Z,1.00
2018-04-16T13:24:19.143Z,1.00
2018-04-16T13:26:46.601Z,1.00
2018-04-16T13:29:14.058Z,1.00
2018-04-16T13:31:41.525Z,1.00
2018-04-16T13:34:08.995Z,1.00
2018-04-16T13:36:36.467Z,1.00
2018-04-16T13:39:03.933Z,1.00
2018-04-16T13:41:31.397Z,1.00
2018-04-16T13:43:58.869Z,1.00
2018-04-16T13:46:26.339Z,1.00
2018-04-16T13:48:53.802Z,1.00
2018-04-16T13:51:21.277Z,1.00
2018-04-16T13:53:48.735Z,1.00
2018-04-16T13:56:16.225Z,1.00
2018-04-16T13:58:43.685Z,1.00
2018-04-16T14:01:11.145Z,1.00
2018-04-16T14:03:38.607Z,1.00
2018-04-16T14:06:06.095Z,1.00
2018-04-16T14:08:33.546Z,1.00
2018-04-16T14:11:01.022Z,1.00
2018-04-16T14:13:28.496Z,1.00
2018-04-16T14:15:55.959Z,1.00
2018-04-16T14:18:23.429Z,1.00
2018-04-16T14:20:50.891Z,1.00
2018-04-16T14:23:18.356Z,1.00
2018-04-16T14:25:45.827Z,1.00
2018-04-16T14:28:13.306Z,1.00
2018-04-16T14:30:40.769Z,1.00
2018-04-16T14:33:08.230Z,1.00
2018-04-16T14:35:35.690Z,1.00
2018-04-16T14:38:03.930Z,1.00
2018-04-16T14:40:31.391Z,1.00
2018-04-16T14:42:58.858Z,1.00
2018-04-16T14:45:26.312Z,1.00
2018-04-16T14:47:54.607Z,1.00
2018-04-16T14:50:22.064Z,1.00
2018-04-16T14:52:49.538Z,1.00
2018-04-16T14:55:16.995Z,1.00
2018-04-16T14:57:44.463Z,3.60
2018-04-16T15:00:11.934Z,6.10
2018-04-16T15:02:39.408Z,1.00
2018-04-16T15:05:06.869Z,6.20
2018-04-16T15:07:34.341Z,6.20
2018-04-16T15:10:02.576Z,4.30
2018-04-16T15:12:31.029Z,4.10
2018-04-16T15:14:58.523Z,3.80
2018-04-16T15:17:25.998Z,1.00
2018-04-16T15:19:53.458Z,1.00
2018-04-16T15:22:20.929Z,1.00
2018-04-16T15:24:48.390Z,1.00
2018-04-16T15:27:15.857Z,3.40
2018-04-16T15:29:44.231Z,1.80
2018-04-16T15:32:11.707Z,2.30
2018-04-16T15:34:49.150Z,1.00
2018-04-16T15:37:17.603Z,1.00
2018-04-16T15:39:49.619Z,1.00
2018-04-16T15:42:19.005Z,1.00
2018-04-16T15:44:46.463Z,1.00
2018-04-16T15:47:14.698Z,1.00
2018-04-16T15:49:44.663Z,1.00
2018-04-16T15:52:12.130Z,1.00
2018-04-16T15:54:39.593Z,1.00
2018-04-16T15:57:07.066Z,1.00
2018-04-16T15:59:34.566Z,1.00
2018-04-16T16:02:02.022Z,1.00
2018-04-16T16:04:29.490Z,1.00
2018-04-16T16:07:00.270Z,1.00
2018-04-16T16:09:30.609Z,1.00
2018-04-16T16:11:58.074Z,1.00
2018-04-16T16:14:25.535Z,1.00
2018-04-16T16:16:59.946Z,1.00
2018-04-16T16:19:27.834Z,1.00
2018-04-16T16:22:02.475Z,1.00
2018-04-16T16:24:29.942Z,1.00
2018-04-16T16:30:03.275Z,1.00
2018-04-16T16:32:30.746Z,1.00
2018-04-16T16:34:58.248Z,1.00
2018-04-16T16:37:26.260Z,1.00
2018-04-16T16:39:57.716Z,1.00
2018-04-16T16:42:25.186Z,1.00
2018-04-16T16:44:52.650Z,1.00
2018-04-16T16:47:20.121Z,1.00
2018-04-16T16:49:47.585Z,1.00
2018-04-16T16:52:15.926Z,1.00
2018-04-16T16:54:44.430Z,1.00
2018-04-16T16:57:21.570Z,1.00
2018-04-16T16:59:49.030Z,1.00
2018-04-16T17:02:16.507Z,1.00
2018-04-16T17:04:43.970Z,1.00
2018-04-16T17:07:11.433Z,2.10
2018-04-16T17:09:40.885Z,1.00
2018-04-16T17:12:09.123Z,2.60
2018-04-16T17:14:37.349Z,1.80
2018-04-16T17:17:04.817Z,1.80
2018-04-16T17:19:44.950Z,1.00
2018-04-16T17:22:14.328Z,1.00
2018-04-16T17:24:42.570Z,1.00
2018-04-16T17:27:15.622Z,1.00
2018-04-16T17:29:43.093Z,1.00
2018-04-16T17:32:10.573Z,1.00
2018-04-16T17:34:43.045Z,1.00
2018-04-16T17:37:14.718Z,1.00
2018-04-16T17:42:35.189Z,1.00
2018-04-16T17:45:03.425Z,1.00
2018-04-16T17:47:32.878Z,1.00
2018-04-16T17:50:00.348Z,1.00
2018-04-16T17:52:29.754Z,1.00
2018-04-16T17:54:58.130Z,1.00
2018-04-16T17:57:26.358Z,1.00
2018-04-16T17:59:53.827Z,1.00
2018-04-16T18:02:34.925Z,1.00
2018-04-16T18:05:03.493Z,1.20
2018-04-16T18:07:32.904Z,2.80
2018-04-16T18:10:01.143Z,6.50
2018-04-16T18:12:28.605Z,6.70
2018-04-16T18:14:58.071Z,8.10
2018-04-16T18:17:26.466Z,12.30
2018-04-16T18:19:53.929Z,17.20
2018-04-16T18:22:21.423Z,21.90
2018-04-16T18:24:54.357Z,27.00
2018-04-16T18:27:23.841Z,36.60
2018-04-16T18:29:51.312Z,34.10
2018-04-16T18:32:29.011Z,35.30
2018-04-16T18:35:02.545Z,35.00
2018-04-16T18:37:31.006Z,37.10
2018-04-16T18:39:58.481Z,58.50
2018-04-16T18:42:25.942Z,70.90
2018-04-16T18:44:53.417Z,77.50
2018-04-16T18:47:20.890Z,79.70
2018-04-16T18:49:50.296Z,81.20
2018-04-16T18:52:17.755Z,83.90
2018-04-16T18:54:45.998Z,86.90
2018-04-16T18:57:13.463Z,87.00
2018-04-16T18:59:40.939Z,88.40
2018-04-16T19:02:08.404Z,92.70
2018-04-16T19:04:37.799Z,93.60
2018-04-16T19:07:10.256Z,96.60
2018-04-16T19:09:38.485Z,99.10
2018-04-16T19:12:05.946Z,99.10
2018-04-16T19:14:33.414Z,99.10
2018-04-16T19:17:01.870Z,99.90
2018-04-16T19:19:30.186Z,99.90
2018-04-16T19:21:57.652Z,99.90
2018-04-16T19:24:25.125Z,99.90
2018-04-16T19:26:58.334Z,99.90
2018-04-16T19:29:30.502Z,99.90
2018-04-16T19:31:57.970Z,99.90
2018-04-16T19:34:31.011Z,99.90
2018-04-16T19:36:58.473Z,99.90
2018-04-16T19:39:25.941Z,99.90
2018-04-16T19:41:58.976Z,99.90
2018-04-16T19:44:32.181Z,99.90
2018-04-16T19:46:59.637Z,99.90
2018-04-16T19:49:32.773Z,99.90
2018-04-16T19:52:01.991Z,99.90
2018-04-16T19:54:37.420Z,99.90
2018-04-16T19:57:10.605Z,99.90
2018-04-16T19:59:45.873Z,99.90
2018-04-16T20:02:21.037Z,99.90
2018-04-16T20:04:48.558Z,99.90
2018-04-16T20:07:16.013Z,99.90
2018-04-16T20:09:43.486Z,99.90
2018-04-16T20:12:11.303Z,99.90
2018-04-16T20:17:38.101Z,99.90
2018-04-16T20:20:06.293Z,99.90
2018-04-16T20:22:33.767Z,99.90
2018-04-16T20:25:05.567Z,99.90
2018-04-16T20:27:33.035Z,99.90
2018-04-16T20:30:01.267Z,99.90
2018-04-16T20:32:28.730Z,99.90
2018-04-16T20:34:56.198Z,99.90
2018-04-16T20:37:23.661Z,99.90
2018-04-16T20:39:52.121Z,99.90
2018-04-16T20:42:20.340Z,99.90
2018-04-16T20:44:47.813Z,99.90
2018-04-16T20:47:15.286Z,99.90
2018-04-16T20:49:44.661Z,99.90
2018-04-16T20:52:12.133Z,99.90
2018-04-16T20:54:39.611Z,99.90
2018-04-16T20:57:07.073Z,99.90
2018-04-16T20:59:34.572Z,99.90
2018-04-16T21:02:02.781Z,99.90
2018-04-16T21:04:47.949Z,99.90
2018-04-16T21:07:19.177Z,99.90
2018-04-16T21:09:46.633Z,99.90
2018-04-16T21:12:14.857Z,99.90
2018-04-16T21:14:42.339Z,99.90
2018-04-16T21:17:10.791Z,99.90
2018-04-16T21:19:39.021Z,99.90
2018-04-16T21:22:06.486Z,99.90
2018-04-16T21:24:33.964Z,99.90
2018-04-16T21:27:01.414Z,99.90
2018-04-16T21:29:28.881Z,99.90
2018-04-16T21:31:57.070Z,99.90
2018-04-16T21:34:31.658Z,99.90
2018-04-16T21:36:59.540Z,99.90
2018-04-16T21:39:27.277Z,99.90
2018-04-16T21:41:54.756Z,99.90
2018-04-16T21:44:26.589Z,99.90
2018-04-16T21:50:12.321Z,99.90
2018-04-16T21:52:41.541Z,99.90
2018-04-16T21:55:09.009Z,99.90
2018-04-16T21:57:36.465Z,99.90
2018-04-16T22:00:04.703Z,99.90
2018-04-16T22:02:33.038Z,99.90
2018-04-16T22:05:02.053Z,99.90
2018-04-16T22:07:31.679Z,99.90
2018-04-16T22:10:05.217Z,99.90
2018-04-16T22:12:32.681Z,99.90
2018-04-16T22:15:01.078Z,99.90
2018-04-16T22:17:28.562Z,99.90
2018-04-16T22:19:57.398Z,99.90
2018-04-16T22:22:24.859Z,99.90
2018-04-16T22:24:52.317Z,99.90
2018-04-16T22:27:19.778Z,99.90
2018-04-16T22:29:47.250Z,99.90
2018-04-16T22:32:14.711Z,99.90
2018-04-16T22:34:45.317Z,99.90
2018-04-16T22:37:19.710Z,99.90
2018-04-16T22:39:47.180Z,99.90
2018-04-16T22:42:14.650Z,99.90
2018-04-16T22:44:42.129Z,99.90
2018-04-16T22:47:09.608Z,99.90
2018-04-16T22:49:37.078Z,99.90
2018-04-16T22:52:06.469Z,99.90
2018-04-16T22:54:33.929Z,99.90
2018-04-16T22:57:03.414Z,99.90
2018-04-16T22:59:30.879Z,99.90
2018-04-16T23:04:52.446Z,99.90
2018-04-16T23:07:19.971Z,99.90
2018-04-16T23:09:47.433Z,99.90
2018-04-16T23:12:14.910Z,99.90
2018-04-16T23:14:42.374Z,99.90
2018-04-16T23:17:09.852Z,99.90
2018-04-16T23:19:37.761Z,99.90
2018-04-16T23:22:16.571Z,99.90
2018-04-16T23:24:44.036Z,99.90
2018-04-16T23:27:13.522Z,99.90
2018-04-16T23:29:40.982Z,99.90
2018-04-16T23:32:08.457Z,99.90
2018-04-16T23:34:40.809Z,99.90
2018-04-16T23:37:09.046Z,99.90
2018-04-16T23:39:36.501Z,99.90
2018-04-16T23:42:03.967Z,99.90
2018-04-16T23:44:53.374Z,99.90
2018-04-16T23:47:21.617Z,99.90
2018-04-16T23:49:50.401Z,99.90
2018-04-16T23:52:18.630Z,99.90
2018-04-16T23:54:46.090Z,99.90
2018-04-16T23:57:13.558Z,99.90
2018-04-16T23:59:41.011Z,99.90
